Weather at Middle Wallop Airfield

Public forecast

Using degrees Celsius for public forecast. Weather courtesy of forecast.io.

Current aviation weather report (METAR) for Middle Wallop Airfield

Retrieved 2022/08/20 05:50 UTC (23 minutes ago):

EGVP 200550Z AUTO 21004KT 9999 OVC042/// 14/12 Q1018

Aviation forecast (TAF) for Middle Wallop Airfield

Forecast is more than 12 hours old.

Retrieved 2019/01/07 18:33 UTC (4 years ago):

TAF EGVP 071727Z 0718/0821 CNL